Vn Rebel _ — ILBR — position and weather

sailwx.info

Track history (hours):
 
Tides and Currents Weather Stations Pressure Air Temp Water Temp Dewpoint Dewpoint Depression Visibility Wind Speed Wind Dir Waves Ship Positions

Vn Rebel _

Last reported at 2015-Apr-22 19:20 UTC. Time now 2015-May-04 18:05 UTC.
Position N 43°07' E 005°55'.
Warning: this ship's position is 11 days out of date.

Length 45 m; draft 2.4 m.

MMSI: 247010300.

Date/timePositionNaut miles runAvg speedWind from/ knotsBaromVisibWave heightAir tempDewpointWater temp
2015-Apr-22 19:20N 43°07' E 005°55'4 5.6
2015-Apr-22 18:33N 43°03' E 005°58'8 6.2
2015-Apr-22 17:19N 43°03' E 005°47'3 4.3
2015-Apr-22 16:33N 43°04' E 005°43'0 0.1
2015-Apr-22 15:24N 43°04' E 005°43'0 0.5
2015-Apr-22 14:31N 43°04' E 005°44'7 7.2
2015-Apr-22 13:33N 43°02' E 005°53'5 5.0
2015-Apr-22 12:33N 43°07' E 005°55'  
2015-Apr-17 16:32N 43°07' E 005°55'0 0.0
2015-Apr-15 14:31N 43°07' E 005°55'  
Track history (hours):
 
Tides and Currents Weather Stations Pressure Air Temp Water Temp Dewpoint Dewpoint Depression Visibility Wind Speed Wind Dir Waves Ship Positions

Vn Rebel _

Last reported at 2015-Apr-22 19:20 UTC. Time now 2015-May-04 18:05 UTC.
Position N 43°07' E 005°55'.
Warning: this ship's position is 11 days out of date.

Length 45 m; draft 2.4 m.

MMSI: 247010300.

Date/timePositionNaut miles runAvg speedWind from/ knotsBaromVisibWave heightAir tempDewpointWater temp
2015-Apr-22 19:20N 43°07' E 005°55'4 5.6
2015-Apr-22 18:33N 43°03' E 005°58'8 6.2
2015-Apr-22 17:19N 43°03' E 005°47'3 4.3
2015-Apr-22 16:33N 43°04' E 005°43'0 0.1
2015-Apr-22 15:24N 43°04' E 005°43'0 0.5
2015-Apr-22 14:31N 43°04' E 005°44'7 7.2
2015-Apr-22 13:33N 43°02' E 005°53'5 5.0
2015-Apr-22 12:33N 43°07' E 005°55'  
2015-Apr-17 16:32N 43°07' E 005°55'0 0.0
2015-Apr-15 14:31N 43°07' E 005°55'  

Dump ship's entire track history